sensor_id;sensor_type;location;lat;lon;timestamp;pressure;altitude;pressure_sealevel;temperature;humidity
28008;BME280;15333;50.010;20.020;2022-08-03T00:01:50;99061.22;;;15.89;100.00
28008;BME280;15333;50.010;20.020;2022-08-03T00:04:50;99062.06;;;15.80;100.00
28008;BME280;15333;50.010;20.020;2022-08-03T00:07:51;99053.81;;;15.72;100.00
28008;BME280;15333;50.010;20.020;2022-08-03T00:10:52;99056.09;;;15.67;100.00
28008;BME280;15333;50.010;20.020;2022-08-03T00:13:53;99056.66;;;15.61;100.00
28008;BME280;15333;50.010;20.020;2022-08-03T00:16:54;99056.09;;;15.57;100.00
28008;BME280;15333;50.010;20.020;2022-08-03T00:19:55;99054.25;;;15.58;100.00
28008;BME280;15333;50.010;20.020;2022-08-03T00:22:56;99060.94;;;15.54;100.00
28008;BME280;15333;50.010;20.020;2022-08-03T00:26:01;99057.75;;;15.49;100.00
28008;BME280;15333;50.010;20.020;2022-08-03T00:29:02;99054.63;;;15.44;100.00
28008;BME280;15333;50.010;20.020;2022-08-03T00:32:03;99061.78;;;15.64;100.00
28008;BME280;15333;50.010;20.020;2022-08-03T00:35:05;99054.81;;;15.71;100.00
28008;BME280;15333;50.010;20.020;2022-08-03T00:38:06;99059.50;;;15.88;100.00
28008;BME280;15333;50.010;20.020;2022-08-03T00:41:07;99055.38;;;16.03;100.00
28008;BME280;15333;50.010;20.020;2022-08-03T00:44:08;99056.91;;;16.06;100.00
28008;BME280;15333;50.010;20.020;2022-08-03T00:47:09;99055.94;;;16.07;100.00
28008;BME280;15333;50.010;20.020;2022-08-03T00:50:11;99062.03;;;16.09;100.00
28008;BME280;15333;50.010;20.020;2022-08-03T00:53:13;99060.91;;;16.12;100.00
28008;BME280;15333;50.010;20.020;2022-08-03T00:56:15;99063.19;;;16.06;100.00
28008;BME280;15333;50.010;20.020;2022-08-03T00:59:17;99058.09;;;16.03;100.00
28008;BME280;15333;50.010;20.020;2022-08-03T01:02:18;99070.59;;;15.95;100.00
28008;BME280;15333;50.010;20.020;2022-08-03T01:05:22;99069.47;;;15.97;100.00
28008;BME280;15333;50.010;20.020;2022-08-03T01:09:02;99070.31;;;15.98;100.00
28008;BME280;15333;50.010;20.020;2022-08-03T01:12:17;99063.06;;;15.98;100.00
28008;BME280;15333;50.010;20.020;2022-08-03T01:15:33;99058.38;;;15.81;100.00
28008;BME280;15333;50.010;20.020;2022-08-03T01:18:51;99064.34;;;15.56;100.00
28008;BME280;15333;50.010;20.020;2022-08-03T01:28:47;99062.53;;;15.16;100.00
28008;BME280;15333;50.010;20.020;2022-08-03T01:31:57;99062.66;;;15.05;100.00
28008;BME280;15333;50.010;20.020;2022-08-03T01:35:10;99062.47;;;14.97;100.00
28008;BME280;15333;50.010;20.020;2022-08-03T01:38:26;99069.28;;;14.92;100.00
28008;BME280;15333;50.010;20.020;2022-08-03T01:41:31;99072.34;;;14.87;100.00
28008;BME280;15333;50.010;20.020;2022-08-03T01:44:36;99063.28;;;14.88;100.00
28008;BME280;15333;50.010;20.020;2022-08-03T01:47:40;99067.88;;;14.97;100.00
28008;BME280;15333;50.010;20.020;2022-08-03T01:50:44;99063.03;;;14.91;100.00
28008;BME280;15333;50.010;20.020;2022-08-03T01:53:45;99058.69;;;14.79;100.00
28008;BME280;15333;50.010;20.020;2022-08-03T01:56:50;99060.97;;;14.74;100.00
28008;BME280;15333;50.010;20.020;2022-08-03T01:59:54;99057.00;;;14.78;100.00
28008;BME280;15333;50.010;20.020;2022-08-03T02:02:57;99056.13;;;14.68;100.00
28008;BME280;15333;50.010;20.020;2022-08-03T02:05:59;99052.44;;;14.69;100.00
28008;BME280;15333;50.010;20.020;2022-08-03T02:09:01;99055.03;;;14.80;100.00
28008;BME280;15333;50.010;20.020;2022-08-03T02:12:03;99047.63;;;14.72;100.00
28008;BME280;15333;50.010;20.020;2022-08-03T02:15:08;99044.34;;;14.69;100.00
28008;BME280;15333;50.010;20.020;2022-08-03T02:18:10;99053.00;;;14.72;100.00
28008;BME280;15333;50.010;20.020;2022-08-03T02:21:12;99049.28;;;14.64;100.00
28008;BME280;15333;50.010;20.020;2022-08-03T02:24:13;99056.34;;;14.55;100.00
28008;BME280;15333;50.010;20.020;2022-08-03T02:27:22;99050.38;;;14.52;100.00
28008;BME280;15333;50.010;20.020;2022-08-03T02:30:28;99049.19;;;14.44;100.00
28008;BME280;15333;50.010;20.020;2022-08-03T02:33:34;99046.94;;;14.49;100.00
28008;BME280;15333;50.010;20.020;2022-08-03T02:36:38;99041.97;;;14.45;100.00
28008;BME280;15333;50.010;20.020;2022-08-03T02:39:42;99053.38;;;14.37;100.00
28008;BME280;15333;50.010;20.020;2022-08-03T02:42:44;99048.00;;;14.37;100.00
28008;BME280;15333;50.010;20.020;2022-08-03T02:45:48;99039.56;;;14.42;100.00
28008;BME280;15333;50.010;20.020;2022-08-03T02:48:50;99040.38;;;14.42;100.00
28008;BME280;15333;50.010;20.020;2022-08-03T02:51:54;99037.22;;;14.37;100.00
28008;BME280;15333;50.010;20.020;2022-08-03T02:55:01;99039.47;;;14.32;100.00
28008;BME280;15333;50.010;20.020;2022-08-03T02:58:03;99042.59;;;14.37;100.00
28008;BME280;15333;50.010;20.020;2022-08-03T03:01:05;99049.94;;;14.35;100.00
28008;BME280;15333;50.010;20.020;2022-08-03T03:04:07;99049.56;;;14.61;100.00
28008;BME280;15333;50.010;20.020;2022-08-03T03:07:13;99051.81;;;14.56;100.00
28008;BME280;15333;50.010;20.020;2022-08-03T03:10:15;99048.34;;;14.44;100.00
28008;BME280;15333;50.010;20.020;2022-08-03T03:13:16;99048.28;;;14.34;100.00
28008;BME280;15333;50.010;20.020;2022-08-03T03:16:19;99060.28;;;14.30;100.00
28008;BME280;15333;50.010;20.020;2022-08-03T03:19:21;99051.94;;;14.33;100.00
28008;BME280;15333;50.010;20.020;2022-08-03T03:22:23;99055.44;;;14.45;100.00
28008;BME280;15333;50.010;20.020;2022-08-03T03:25:24;99050.38;;;14.52;100.00
28008;BME280;15333;50.010;20.020;2022-08-03T03:28:25;99048.75;;;14.70;100.00
28008;BME280;15333;50.010;20.020;2022-08-03T03:31:27;99061.56;;;14.87;100.00
28008;BME280;15333;50.010;20.020;2022-08-03T03:34:28;99055.16;;;15.18;100.00
28008;BME280;15333;50.010;20.020;2022-08-03T03:37:30;99053.19;;;15.49;100.00
28008;BME280;15333;50.010;20.020;2022-08-03T03:40:31;99056.38;;;15.64;100.00
28008;BME280;15333;50.010;20.020;2022-08-03T03:43:31;99058.94;;;15.94;100.00
28008;BME280;15333;50.010;20.020;2022-08-03T03:46:33;99059.75;;;16.33;100.00
28008;BME280;15333;50.010;20.020;2022-08-03T03:49:35;99059.94;;;16.59;100.00
28008;BME280;15333;50.010;20.020;2022-08-03T03:52:36;99057.13;;;17.25;100.00
28008;BME280;15333;50.010;20.020;2022-08-03T03:55:37;99070.13;;;17.39;100.00
28008;BME280;15333;50.010;20.020;2022-08-03T03:58:38;99065.66;;;17.20;100.00
28008;BME280;15333;50.010;20.020;2022-08-03T04:01:39;99073.25;;;16.90;100.00
28008;BME280;15333;50.010;20.020;2022-08-03T04:04:40;99079.84;;;16.58;100.00
28008;BME280;15333;50.010;20.020;2022-08-03T04:11:33;99082.56;;;17.05;100.00
28008;BME280;15333;50.010;20.020;2022-08-03T04:14:38;99086.56;;;17.91;100.00
28008;BME280;15333;50.010;20.020;2022-08-03T04:17:42;99078.78;;;19.01;93.40
28008;BME280;15333;50.010;20.020;2022-08-03T04:20:46;99082.88;;;19.47;87.45
28008;BME280;15333;50.010;20.020;2022-08-03T04:23:50;99086.53;;;19.30;88.33
28008;BME280;15333;50.010;20.020;2022-08-03T04:26:53;99092.28;;;18.93;89.78
28008;BME280;15333;50.010;20.020;2022-08-03T04:29:58;99090.16;;;19.12;89.39
28008;BME280;15333;50.010;20.020;2022-08-03T04:33:02;99096.56;;;19.87;85.46
28008;BME280;15333;50.010;20.020;2022-08-03T04:36:05;99091.13;;;20.04;84.36
28008;BME280;15333;50.010;20.020;2022-08-03T04:39:11;99095.94;;;20.58;80.34
28008;BME280;15333;50.010;20.020;2022-08-03T04:42:14;99096.91;;;21.68;75.23
28008;BME280;15333;50.010;20.020;2022-08-03T04:45:16;99101.53;;;21.98;74.15
28008;BME280;15333;50.010;20.020;2022-08-03T04:48:19;99101.69;;;22.65;70.33
28008;BME280;15333;50.010;20.020;2022-08-03T04:51:20;99104.94;;;22.83;68.61
28008;BME280;15333;50.010;20.020;2022-08-03T04:54:21;99108.59;;;22.90;68.01
28008;BME280;15333;50.010;20.020;2022-08-03T04:57:22;99110.00;;;22.03;72.15
28008;BME280;15333;50.010;20.020;2022-08-03T05:00:23;99109.25;;;22.55;70.38
28008;BME280;15333;50.010;20.020;2022-08-03T05:03:24;99115.22;;;22.36;71.31
28008;BME280;15333;50.010;20.020;2022-08-03T05:06:25;99110.00;;;21.41;74.60
28008;BME280;15333;50.010;20.020;2022-08-03T05:09:26;99113.06;;;20.75;78.42
28008;BME280;15333;50.010;20.020;2022-08-03T05:12:27;99114.53;;;21.57;75.35
28008;BME280;15333;50.010;20.020;2022-08-03T05:15:27;99110.97;;;22.10;71.71
28008;BME280;15333;50.010;20.020;2022-08-03T05:18:28;99107.84;;;22.21;71.47
28008;BME280;15333;50.010;20.020;2022-08-03T05:21:29;99112.44;;;22.44;70.30
28008;BME280;15333;50.010;20.020;2022-08-03T05:24:30;99110.22;;;23.73;66.10
28008;BME280;15333;50.010;20.020;2022-08-03T05:27:31;99115.56;;;22.78;68.71
28008;BME280;15333;50.010;20.020;2022-08-03T05:30:31;99113.41;;;23.62;66.13
28008;BME280;15333;50.010;20.020;2022-08-03T05:33:32;99114.13;;;23.85;63.70
28008;BME280;15333;50.010;20.020;2022-08-03T05:36:36;99109.78;;;24.12;64.08
28008;BME280;15333;50.010;20.020;2022-08-03T05:39:37;99113.34;;;24.98;61.44
28008;BME280;15333;50.010;20.020;2022-08-03T05:42:38;99108.72;;;25.32;59.93
28008;BME280;15333;50.010;20.020;2022-08-03T05:45:38;99111.47;;;25.80;57.33
28008;BME280;15333;50.010;20.020;2022-08-03T05:48:40;99105.34;;;26.65;55.85
28008;BME280;15333;50.010;20.020;2022-08-03T05:51:41;99109.06;;;26.18;56.93
28008;BME280;15333;50.010;20.020;2022-08-03T05:54:42;99115.28;;;25.79;58.06
28008;BME280;15333;50.010;20.020;2022-08-03T05:57:45;99111.50;;;24.55;62.58
28008;BME280;15333;50.010;20.020;2022-08-03T06:00:46;99117.84;;;23.19;68.76
28008;BME280;15333;50.010;20.020;2022-08-03T06:03:47;99116.44;;;22.93;70.71
28008;BME280;15333;50.010;20.020;2022-08-03T06:06:49;99109.88;;;22.65;71.55
28008;BME280;15333;50.010;20.020;2022-08-03T06:09:50;99108.16;;;21.73;74.66
28008;BME280;15333;50.010;20.020;2022-08-03T06:12:51;99115.00;;;21.61;76.22
28008;BME280;15333;50.010;20.020;2022-08-03T06:15:52;99121.00;;;21.09;78.21
28008;BME280;15333;50.010;20.020;2022-08-03T06:18:53;99124.28;;;20.88;79.75
28008;BME280;15333;50.010;20.020;2022-08-03T06:21:53;99117.88;;;21.28;78.72
28008;BME280;15333;50.010;20.020;2022-08-03T06:24:54;99118.28;;;21.56;77.84
28008;BME280;15333;50.010;20.020;2022-08-03T06:27:55;99119.59;;;21.60;76.74
28008;BME280;15333;50.010;20.020;2022-08-03T06:30:56;99118.19;;;21.33;77.76
28008;BME280;15333;50.010;20.020;2022-08-03T06:33:57;99120.91;;;21.33;79.04
28008;BME280;15333;50.010;20.020;2022-08-03T06:36:58;99122.53;;;21.59;77.97
28008;BME280;15333;50.010;20.020;2022-08-03T06:39:58;99113.69;;;21.57;79.02
28008;BME280;15333;50.010;20.020;2022-08-03T06:43:01;99124.03;;;21.92;76.50
28008;BME280;15333;50.010;20.020;2022-08-03T06:46:03;99128.44;;;22.47;74.59
28008;BME280;15333;50.010;20.020;2022-08-03T06:49:05;99120.91;;;22.49;75.13
28008;BME280;15333;50.010;20.020;2022-08-03T06:52:06;99120.56;;;22.52;74.97
28008;BME280;15333;50.010;20.020;2022-08-03T06:55:07;99124.09;;;22.75;74.16
28008;BME280;15333;50.010;20.020;2022-08-03T06:58:08;99124.06;;;22.98;73.59
28008;BME280;15333;50.010;20.020;2022-08-03T07:01:09;99123.03;;;22.99;73.06
28008;BME280;15333;50.010;20.020;2022-08-03T07:04:10;99121.97;;;22.85;72.17
28008;BME280;15333;50.010;20.020;2022-08-03T07:07:11;99132.00;;;23.37;69.80
28008;BME280;15333;50.010;20.020;2022-08-03T07:10:12;99137.25;;;23.24;70.34
28008;BME280;15333;50.010;20.020;2022-08-03T07:13:13;99127.56;;;22.69;73.13
28008;BME280;15333;50.010;20.020;2022-08-03T07:16:13;99126.09;;;22.81;72.57
28008;BME280;15333;50.010;20.020;2022-08-03T07:19:14;99123.47;;;22.73;72.55
28008;BME280;15333;50.010;20.020;2022-08-03T07:22:16;99134.00;;;22.76;73.23
28008;BME280;15333;50.010;20.020;2022-08-03T07:25:18;99135.72;;;22.92;71.91
28008;BME280;15333;50.010;20.020;2022-08-03T07:28:19;99138.00;;;22.65;74.74
28008;BME280;15333;50.010;20.020;2022-08-03T07:31:20;99138.88;;;22.43;74.69
28008;BME280;15333;50.010;20.020;2022-08-03T07:34:21;99132.44;;;22.59;75.08
28008;BME280;15333;50.010;20.020;2022-08-03T07:37:22;99134.72;;;22.70;74.40
28008;BME280;15333;50.010;20.020;2022-08-03T07:40:23;99140.41;;;22.60;74.44
28008;BME280;15333;50.010;20.020;2022-08-03T07:43:24;99140.56;;;22.21;76.53
28008;BME280;15333;50.010;20.020;2022-08-03T07:46:25;99127.56;;;22.69;74.49
28008;BME280;15333;50.010;20.020;2022-08-03T07:49:26;99136.84;;;22.97;73.82
28008;BME280;15333;50.010;20.020;2022-08-03T07:52:26;99135.75;;;23.07;73.38
28008;BME280;15333;50.010;20.020;2022-08-03T07:55:46;99133.88;;;23.22;72.66
28008;BME280;15333;50.010;20.020;2022-08-03T07:58:47;99137.06;;;23.11;72.69
28008;BME280;15333;50.010;20.020;2022-08-03T08:01:48;99129.63;;;23.19;72.21
28008;BME280;15333;50.010;20.020;2022-08-03T08:04:52;99132.81;;;23.67;70.97
28008;BME280;15333;50.010;20.020;2022-08-03T08:07:53;99127.44;;;23.73;70.08
28008;BME280;15333;50.010;20.020;2022-08-03T08:10:53;99129.06;;;24.04;69.87
28008;BME280;15333;50.010;20.020;2022-08-03T08:13:54;99129.06;;;24.04;69.85
28008;BME280;15333;50.010;20.020;2022-08-03T08:16:55;99132.03;;;24.09;68.57
28008;BME280;15333;50.010;20.020;2022-08-03T08:19:56;99129.88;;;24.40;68.36
28008;BME280;15333;50.010;20.020;2022-08-03T08:23:06;99135.72;;;24.58;66.83
28008;BME280;15333;50.010;20.020;2022-08-03T08:26:07;99136.53;;;25.02;65.95
28008;BME280;15333;50.010;20.020;2022-08-03T08:29:08;99134.50;;;24.89;66.55
28008;BME280;15333;50.010;20.020;2022-08-03T08:32:09;99142.28;;;24.57;65.09
28008;BME280;15333;50.010;20.020;2022-08-03T08:35:11;99139.66;;;24.71;65.64
28008;BME280;15333;50.010;20.020;2022-08-03T08:38:12;99129.59;;;24.99;64.42
28008;BME280;15333;50.010;20.020;2022-08-03T08:41:13;99134.34;;;25.18;64.62
28008;BME280;15333;50.010;20.020;2022-08-03T08:44:14;99139.66;;;24.71;65.50
28008;BME280;15333;50.010;20.020;2022-08-03T08:47:17;99132.34;;;24.78;66.69
28008;BME280;15333;50.010;20.020;2022-08-03T08:50:20;99125.59;;;25.36;64.67
28008;BME280;15333;50.010;20.020;2022-08-03T08:53:24;99132.78;;;25.09;64.95
28008;BME280;15333;50.010;20.020;2022-08-03T08:56:26;99130.13;;;25.22;64.94
28008;BME280;15333;50.010;20.020;2022-08-03T08:59:28;99123.03;;;25.62;61.90
28008;BME280;15333;50.010;20.020;2022-08-03T09:02:32;99120.69;;;25.66;61.76
28008;BME280;15333;50.010;20.020;2022-08-03T09:05:32;99125.53;;;25.29;61.23
28008;BME280;15333;50.010;20.020;2022-08-03T09:08:34;99126.78;;;25.20;62.73
28008;BME280;15333;50.010;20.020;2022-08-03T09:11:35;99128.91;;;25.25;62.32
28008;BME280;15333;50.010;20.020;2022-08-03T09:14:36;99112.03;;;25.21;60.64
28008;BME280;15333;50.010;20.020;2022-08-03T09:17:40;99120.63;;;25.53;59.50
28008;BME280;15333;50.010;20.020;2022-08-03T09:20:41;99115.75;;;25.89;59.48
28008;BME280;15333;50.010;20.020;2022-08-03T09:23:49;99115.97;;;25.94;57.84
28008;BME280;15333;50.010;20.020;2022-08-03T09:26:51;99118.22;;;25.71;57.57
28008;BME280;15333;50.010;20.020;2022-08-03T09:29:53;99118.13;;;25.58;55.84
28008;BME280;15333;50.010;20.020;2022-08-03T09:33:00;99115.59;;;25.56;57.36
28008;BME280;15333;50.010;20.020;2022-08-03T09:36:01;99111.13;;;25.49;57.50
28008;BME280;15333;50.010;20.020;2022-08-03T09:39:04;99109.25;;;25.56;58.51
28008;BME280;15333;50.010;20.020;2022-08-03T09:42:14;99113.78;;;25.70;55.16
28008;BME280;15333;50.010;20.020;2022-08-03T09:45:26;99111.00;;;25.63;55.57
28008;BME280;15333;50.010;20.020;2022-08-03T09:48:29;99107.72;;;25.94;54.99
28008;BME280;15333;50.010;20.020;2022-08-03T09:51:30;99111.31;;;25.88;51.81
28008;BME280;15333;50.010;20.020;2022-08-03T09:54:31;99105.03;;;26.07;53.22
28008;BME280;15333;50.010;20.020;2022-08-03T09:57:32;99099.44;;;26.42;51.56
28008;BME280;15333;50.010;20.020;2022-08-03T10:03:57;99101.53;;;26.27;50.18
28008;BME280;15333;50.010;20.020;2022-08-03T10:07:06;99100.28;;;26.75;48.78
28008;BME280;15333;50.010;20.020;2022-08-03T10:10:09;99101.88;;;26.24;49.89
28008;BME280;15333;50.010;20.020;2022-08-03T10:13:12;99107.41;;;26.30;53.29
28008;BME280;15333;50.010;20.020;2022-08-03T10:16:14;99097.31;;;26.70;51.57
28008;BME280;15333;50.010;20.020;2022-08-03T10:19:15;99100.66;;;27.18;50.43
28008;BME280;15333;50.010;20.020;2022-08-03T10:22:24;99096.38;;;27.36;49.53
28008;BME280;15333;50.010;20.020;2022-08-03T10:25:29;99098.16;;;27.04;48.73
28008;BME280;15333;50.010;20.020;2022-08-03T10:28:35;99099.78;;;27.31;48.30
28008;BME280;15333;50.010;20.020;2022-08-03T10:31:38;99089.50;;;26.94;48.71
28008;BME280;15333;50.010;20.020;2022-08-03T10:34:41;99092.69;;;26.91;49.32
28008;BME280;15333;50.010;20.020;2022-08-03T10:37:49;99085.50;;;26.89;49.51
28008;BME280;15333;50.010;20.020;2022-08-03T10:40:53;99089.59;;;27.38;46.75
28008;BME280;15333;50.010;20.020;2022-08-03T10:44:09;99083.53;;;27.16;46.99
28008;BME280;15333;50.010;20.020;2022-08-03T10:47:12;99085.88;;;27.19;45.61
28008;BME280;15333;50.010;20.020;2022-08-03T10:50:14;99090.91;;;27.29;45.94
28008;BME280;15333;50.010;20.020;2022-08-03T10:53:15;99087.59;;;26.61;46.42
28008;BME280;15333;50.010;20.020;2022-08-03T11:03:03;99080.13;;;27.85;44.73
28008;BME280;15333;50.010;20.020;2022-08-03T11:06:25;99078.78;;;27.43;44.64
28008;BME280;15333;50.010;20.020;2022-08-03T11:09:40;99076.06;;;27.56;43.67
28008;BME280;15333;50.010;20.020;2022-08-03T11:12:41;99073.06;;;27.51;45.30
28008;BME280;15333;50.010;20.020;2022-08-03T11:15:45;99073.88;;;27.65;46.89
28008;BME280;15333;50.010;20.020;2022-08-03T11:18:55;99075.09;;;27.18;47.98
28008;BME280;15333;50.010;20.020;2022-08-03T11:21:57;99063.47;;;27.09;49.11
28008;BME280;15333;50.010;20.020;2022-08-03T11:24:58;99067.31;;;26.75;49.08
28008;BME280;15333;50.010;20.020;2022-08-03T11:28:25;99062.25;;;26.59;49.53
28008;BME280;15333;50.010;20.020;2022-08-03T11:34:29;99057.81;;;26.98;48.16
28008;BME280;15333;50.010;20.020;2022-08-03T11:37:30;99055.88;;;27.11;46.24
28008;BME280;15333;50.010;20.020;2022-08-03T11:40:44;99056.50;;;27.20;47.40
28008;BME280;15333;50.010;20.020;2022-08-03T11:43:45;99058.47;;;27.51;44.35
28008;BME280;15333;50.010;20.020;2022-08-03T11:46:46;99054.59;;;27.07;44.47
28008;BME280;15333;50.010;20.020;2022-08-03T11:49:49;99052.91;;;26.86;46.55
28008;BME280;15333;50.010;20.020;2022-08-03T11:52:50;99042.78;;;27.00;46.32
28008;BME280;15333;50.010;20.020;2022-08-03T11:55:51;99043.81;;;27.12;45.71
28008;BME280;15333;50.010;20.020;2022-08-03T11:58:55;99036.88;;;26.97;46.21
28008;BME280;15333;50.010;20.020;2022-08-03T12:02:07;99040.59;;;27.22;46.83
28008;BME280;15333;50.010;20.020;2022-08-03T12:05:08;99035.53;;;27.25;47.32
28008;BME280;15333;50.010;20.020;2022-08-03T12:08:11;99038.38;;;27.50;46.27
28008;BME280;15333;50.010;20.020;2022-08-03T12:11:13;99035.09;;;27.22;44.84
28008;BME280;15333;50.010;20.020;2022-08-03T12:14:16;99033.75;;;27.44;43.56
28008;BME280;15333;50.010;20.020;2022-08-03T12:17:17;99038.25;;;27.32;43.66
28008;BME280;15333;50.010;20.020;2022-08-03T12:20:23;99034.88;;;27.30;43.10
28008;BME280;15333;50.010;20.020;2022-08-03T12:23:26;99029.22;;;27.12;45.62
28008;BME280;15333;50.010;20.020;2022-08-03T12:26:28;99029.69;;;26.96;46.27
28008;BME280;15333;50.010;20.020;2022-08-03T12:29:29;99029.59;;;27.28;45.76
28008;BME280;15333;50.010;20.020;2022-08-03T12:32:30;99016.78;;;27.60;46.37
28008;BME280;15333;50.010;20.020;2022-08-03T12:35:31;99018.78;;;27.78;45.86
28008;BME280;15333;50.010;20.020;2022-08-03T12:38:33;99021.59;;;27.72;46.45
28008;BME280;15333;50.010;20.020;2022-08-03T12:41:37;99017.22;;;27.51;44.44
28008;BME280;15333;50.010;20.020;2022-08-03T12:44:38;99015.78;;;27.48;45.59
28008;BME280;15333;50.010;20.020;2022-08-03T12:47:59;99011.03;;;27.69;43.09
28008;BME280;15333;50.010;20.020;2022-08-03T12:51:10;99017.44;;;27.62;44.70
28008;BME280;15333;50.010;20.020;2022-08-03T12:54:21;99012.81;;;27.56;44.34
28008;BME280;15333;50.010;20.020;2022-08-03T12:57:23;99011.19;;;27.29;42.02
28008;BME280;15333;50.010;20.020;2022-08-03T13:00:24;99011.78;;;27.38;43.06
28008;BME280;15333;50.010;20.020;2022-08-03T13:03:27;99005.50;;;27.24;42.16
28008;BME280;15333;50.010;20.020;2022-08-03T13:06:28;99012.34;;;27.59;41.57
28008;BME280;15333;50.010;20.020;2022-08-03T13:09:30;98999.78;;;27.77;39.37
28008;BME280;15333;50.010;20.020;2022-08-03T13:12:47;99003.56;;;28.07;40.44
28008;BME280;15333;50.010;20.020;2022-08-03T13:15:48;98987.91;;;28.08;40.88
28008;BME280;15333;50.010;20.020;2022-08-03T13:18:50;98995.50;;;28.12;42.30
28008;BME280;15333;50.010;20.020;2022-08-03T13:21:53;98999.16;;;28.06;43.38
28008;BME280;15333;50.010;20.020;2022-08-03T13:24:54;99002.22;;;28.23;42.52
28008;BME280;15333;50.010;20.020;2022-08-03T13:27:57;98998.53;;;28.04;42.43
28008;BME280;15333;50.010;20.020;2022-08-03T13:30:58;99004.19;;;28.09;43.24
28008;BME280;15333;50.010;20.020;2022-08-03T13:33:58;98995.16;;;28.02;42.93
28008;BME280;15333;50.010;20.020;2022-08-03T13:36:59;98988.94;;;28.13;42.56
28008;BME280;15333;50.010;20.020;2022-08-03T13:40:02;98994.97;;;27.97;42.33
28008;BME280;15333;50.010;20.020;2022-08-03T13:43:03;98988.88;;;27.50;43.97
28008;BME280;15333;50.010;20.020;2022-08-03T13:46:04;98984.50;;;27.81;43.74
28008;BME280;15333;50.010;20.020;2022-08-03T13:49:06;98988.16;;;28.06;43.30
28008;BME280;15333;50.010;20.020;2022-08-03T13:52:07;98998.78;;;27.96;43.54
28008;BME280;15333;50.010;20.020;2022-08-03T13:55:08;98988.44;;;28.23;43.76
28008;BME280;15333;50.010;20.020;2022-08-03T13:58:09;98985.03;;;28.27;43.10
28008;BME280;15333;50.010;20.020;2022-08-03T14:01:11;98990.31;;;28.54;42.17
28008;BME280;15333;50.010;20.020;2022-08-03T14:04:12;98979.84;;;28.37;42.01
28008;BME280;15333;50.010;20.020;2022-08-03T14:07:13;98977.09;;;28.13;43.03
28008;BME280;15333;50.010;20.020;2022-08-03T14:10:14;98978.41;;;28.03;43.22
28008;BME280;15333;50.010;20.020;2022-08-03T14:13:16;98978.91;;;27.94;43.40
28008;BME280;15333;50.010;20.020;2022-08-03T14:16:17;98981.84;;;27.67;43.29
28008;BME280;15333;50.010;20.020;2022-08-03T14:19:18;98977.88;;;27.63;43.92
28008;BME280;15333;50.010;20.020;2022-08-03T14:22:20;98978.72;;;27.57;43.88
28008;BME280;15333;50.010;20.020;2022-08-03T14:25:21;98977.88;;;27.57;43.59
28008;BME280;15333;50.010;20.020;2022-08-03T14:28:23;98977.06;;;27.56;43.43
28008;BME280;15333;50.010;20.020;2022-08-03T14:31:24;98973.31;;;27.38;44.22
28008;BME280;15333;50.010;20.020;2022-08-03T14:34:26;98975.97;;;27.13;45.22
28008;BME280;15333;50.010;20.020;2022-08-03T14:37:26;98962.59;;;27.67;43.57
28008;BME280;15333;50.010;20.020;2022-08-03T14:40:28;98967.56;;;27.84;44.40
28008;BME280;15333;50.010;20.020;2022-08-03T14:43:29;98966.78;;;27.77;45.32
28008;BME280;15333;50.010;20.020;2022-08-03T14:46:30;98963.91;;;27.58;44.48
28008;BME280;15333;50.010;20.020;2022-08-03T14:49:31;98965.06;;;27.76;43.42
28008;BME280;15333;50.010;20.020;2022-08-03T14:52:32;98962.16;;;27.71;43.06
28008;BME280;15333;50.010;20.020;2022-08-03T14:55:33;98953.97;;;27.89;42.68
28008;BME280;15333;50.010;20.020;2022-08-03T14:58:34;98960.81;;;27.80;43.05
28008;BME280;15333;50.010;20.020;2022-08-03T15:01:35;98954.34;;;27.99;42.97
28008;BME280;15333;50.010;20.020;2022-08-03T15:04:36;98960.56;;;28.13;43.07
28008;BME280;15333;50.010;20.020;2022-08-03T15:07:37;98961.75;;;27.67;43.74
28008;BME280;15333;50.010;20.020;2022-08-03T15:10:38;98957.72;;;27.70;44.10
28008;BME280;15333;50.010;20.020;2022-08-03T15:13:39;98950.59;;;27.87;44.33
28008;BME280;15333;50.010;20.020;2022-08-03T15:16:40;98950.53;;;27.69;44.85
28008;BME280;15333;50.010;20.020;2022-08-03T15:19:41;98951.59;;;27.67;44.63
28008;BME280;15333;50.010;20.020;2022-08-03T15:22:42;98947.69;;;27.82;43.88
28008;BME280;15333;50.010;20.020;2022-08-03T15:25:44;98938.69;;;27.93;44.83
28008;BME280;15333;50.010;20.020;2022-08-03T15:28:46;98938.09;;;27.59;44.28
28008;BME280;15333;50.010;20.020;2022-08-03T15:31:46;98933.13;;;27.37;45.14
28008;BME280;15333;50.010;20.020;2022-08-03T15:34:47;98938.56;;;27.56;44.69
28008;BME280;15333;50.010;20.020;2022-08-03T15:37:48;98934.34;;;27.79;43.12
28008;BME280;15333;50.010;20.020;2022-08-03T15:40:50;98938.09;;;27.59;44.66
28008;BME280;15333;50.010;20.020;2022-08-03T15:43:53;98936.53;;;27.32;46.13
28008;BME280;15333;50.010;20.020;2022-08-03T15:46:54;98935.66;;;27.38;46.72
28008;BME280;15333;50.010;20.020;2022-08-03T15:49:55;98937.41;;;27.26;46.71
28008;BME280;15333;50.010;20.020;2022-08-03T15:52:56;98934.84;;;27.31;45.18
28008;BME280;15333;50.010;20.020;2022-08-03T15:55:58;98931.00;;;27.39;45.11
28008;BME280;15333;50.010;20.020;2022-08-03T15:58:59;98936.03;;;27.48;43.47
28008;BME280;15333;50.010;20.020;2022-08-03T16:02:00;98926.69;;;28.12;41.86
28008;BME280;15333;50.010;20.020;2022-08-03T16:05:01;98919.78;;;28.28;41.74
28008;BME280;15333;50.010;20.020;2022-08-03T16:08:02;98924.22;;;28.04;42.64
28008;BME280;15333;50.010;20.020;2022-08-03T16:11:03;98915.47;;;27.89;42.74
28008;BME280;15333;50.010;20.020;2022-08-03T16:14:04;98918.63;;;28.17;41.92
28008;BME280;15333;50.010;20.020;2022-08-03T16:17:05;98909.59;;;27.79;42.78